createdAt,value
2023-01-21T00:01:15.729Z,5.97
2023-01-21T00:03:45.942Z,6.13
2023-01-21T00:06:15.102Z,6.73
2023-01-21T00:08:43.034Z,6.80
2023-01-21T00:11:14.514Z,6.20
2023-01-21T00:13:43.034Z,6.93
2023-01-21T00:16:12.463Z,6.63
2023-01-21T00:18:40.405Z,5.43
2023-01-21T00:21:09.929Z,5.87
2023-01-21T00:23:37.819Z,5.40
2023-01-21T00:26:08.464Z,5.50
2023-01-21T00:28:37.859Z,4.93
2023-01-21T00:31:09.078Z,5.37
2023-01-21T00:33:37.634Z,4.53
2023-01-21T00:36:08.064Z,4.57
2023-01-21T00:38:38.083Z,4.83
2023-01-21T00:41:08.153Z,4.93
2023-01-21T00:43:36.577Z,4.73
2023-01-21T00:46:04.849Z,4.93
2023-01-21T00:48:33.422Z,5.03
2023-01-21T00:51:01.599Z,4.90
2023-01-21T00:53:31.086Z,5.27
2023-01-21T00:56:04.678Z,5.77
2023-01-21T00:58:33.480Z,5.33
2023-01-21T01:01:03.089Z,5.37
2023-01-21T01:03:31.454Z,5.67
2023-01-21T01:06:03.583Z,5.40
2023-01-21T01:08:31.474Z,5.27
2023-01-21T01:10:59.563Z,4.83
2023-01-21T01:13:29.664Z,5.37
2023-01-21T01:15:58.845Z,5.10
2023-01-21T01:18:28.282Z,5.30
2023-01-21T01:20:56.491Z,5.00
2023-01-21T01:23:24.402Z,5.33
2023-01-21T01:25:59.799Z,5.00
2023-01-21T01:28:29.786Z,5.10
2023-01-21T01:30:58.539Z,5.17
2023-01-21T01:33:26.991Z,5.13
2023-01-21T01:35:55.270Z,4.83
2023-01-21T01:38:24.328Z,5.23
2023-01-21T01:40:53.301Z,4.90
2023-01-21T01:43:23.457Z,4.97
2023-01-21T01:45:54.205Z,4.73
2023-01-21T01:48:27.862Z,4.60
2023-01-21T01:50:58.505Z,4.57
2023-01-21T01:53:28.020Z,4.70
2023-01-21T01:55:56.767Z,4.37
2023-01-21T01:58:25.487Z,4.30
2023-01-21T02:00:54.932Z,4.60
2023-01-21T02:03:40.345Z,4.23
2023-01-21T02:06:08.701Z,4.60
2023-01-21T02:08:36.926Z,4.50
2023-01-21T02:11:12.047Z,4.43
2023-01-21T02:13:41.634Z,4.50
2023-01-21T02:16:47.942Z,4.47
2023-01-21T02:20:01.622Z,5.00
2023-01-21T02:22:34.789Z,4.77
2023-01-21T02:25:36.224Z,4.37
2023-01-21T02:28:45.534Z,4.43
2023-01-21T02:31:29.947Z,5.47
2023-01-21T02:34:12.817Z,5.23
2023-01-21T02:37:00.255Z,4.70
2023-01-21T02:39:36.598Z,5.17
2023-01-21T02:42:07.764Z,4.97
2023-01-21T02:44:40.712Z,5.17
2023-01-21T02:47:18.416Z,5.43
2023-01-21T02:49:53.986Z,4.43
2023-01-21T02:52:23.410Z,4.90
2023-01-21T02:54:56.495Z,5.03
2023-01-21T02:57:38.419Z,5.00
2023-01-21T03:00:11.356Z,5.13
2023-01-21T03:02:59.086Z,4.77
2023-01-21T03:05:41.262Z,5.00
2023-01-21T03:08:15.629Z,5.00
2023-01-21T03:10:49.949Z,4.87
2023-01-21T03:13:45.119Z,4.80
2023-01-21T03:16:34.896Z,4.60
2023-01-21T03:19:07.973Z,5.13
2023-01-21T03:21:38.095Z,5.20
2023-01-21T03:24:07.889Z,5.47
2023-01-21T03:26:41.317Z,5.37
2023-01-21T03:29:12.618Z,5.20
2023-01-21T03:31:43.199Z,5.20
2023-01-21T03:34:15.463Z,4.63
2023-01-21T03:36:52.806Z,5.17
2023-01-21T03:39:30.757Z,4.90
2023-01-21T03:41:58.723Z,4.90
2023-01-21T03:44:27.585Z,4.63
2023-01-21T03:47:05.654Z,4.87
2023-01-21T03:49:37.061Z,4.50
2023-01-21T03:52:08.065Z,4.00
2023-01-21T03:54:37.683Z,4.27
2023-01-21T03:57:05.657Z,4.43
2023-01-21T03:59:33.598Z,4.93
2023-01-21T04:02:01.515Z,4.37
2023-01-21T04:04:29.467Z,4.43
2023-01-21T04:06:57.470Z,4.43
2023-01-21T04:09:26.777Z,5.00
2023-01-21T04:11:54.690Z,4.53
2023-01-21T04:14:22.611Z,4.23
2023-01-21T04:16:50.538Z,4.70
2023-01-21T04:19:18.442Z,4.40
2023-01-21T04:21:46.369Z,4.77
2023-01-21T04:24:14.427Z,4.23
2023-01-21T04:26:43.761Z,4.43
2023-01-21T04:29:11.647Z,4.90
2023-01-21T04:31:39.552Z,4.83
2023-01-21T04:34:07.567Z,5.10
2023-01-21T04:36:35.576Z,5.20
2023-01-21T04:39:03.497Z,4.23
2023-01-21T04:41:31.458Z,4.57
2023-01-21T04:44:00.758Z,4.87
2023-01-21T04:46:28.616Z,4.43
2023-01-21T04:48:56.621Z,4.27
2023-01-21T04:51:24.505Z,4.10
2023-01-21T04:53:52.480Z,4.30
2023-01-21T04:56:20.400Z,4.47
2023-01-21T04:58:48.245Z,4.70
2023-01-21T05:01:17.575Z,4.40
2023-01-21T05:03:45.602Z,5.17
2023-01-21T05:06:13.538Z,5.17
2023-01-21T05:08:41.457Z,5.23
2023-01-21T05:11:10.081Z,4.87
2023-01-21T05:13:38.019Z,5.03
2023-01-21T05:16:09.910Z,5.30
2023-01-21T05:18:40.778Z,5.13
2023-01-21T05:21:08.795Z,4.83
2023-01-21T05:23:36.697Z,5.47
2023-01-21T05:26:04.866Z,6.10
2023-01-21T05:28:32.750Z,5.67
2023-01-21T05:31:04.671Z,5.77
2023-01-21T05:33:33.405Z,5.60
2023-01-21T05:36:03.671Z,5.80
2023-01-21T05:38:31.801Z,5.93
2023-01-21T05:41:00.563Z,5.93
2023-01-21T05:43:28.841Z,6.07
2023-01-21T05:45:56.778Z,5.47
2023-01-21T05:48:25.219Z,6.70
2023-01-21T05:50:53.400Z,6.60
2023-01-21T05:53:22.756Z,6.07
2023-01-21T05:55:52.837Z,6.67
2023-01-21T05:58:20.817Z,7.00
2023-01-21T06:00:49.380Z,7.20
2023-01-21T06:03:18.191Z,7.27
2023-01-21T06:05:46.953Z,6.77
2023-01-21T06:08:15.050Z,7.17
2023-01-21T06:10:44.465Z,7.13
2023-01-21T06:13:13.914Z,7.17
2023-01-21T06:15:42.052Z,7.03
2023-01-21T06:20:52.491Z,6.73
2023-01-21T06:23:20.594Z,7.07
2023-01-21T06:25:49.942Z,7.63
2023-01-21T06:28:18.054Z,6.57
2023-01-21T06:30:46.565Z,7.10
2023-01-21T06:33:14.639Z,6.60
2023-01-21T06:35:42.789Z,6.37
2023-01-21T06:38:11.093Z,7.20
2023-01-21T06:40:39.109Z,7.00
2023-01-21T06:43:08.632Z,6.33
2023-01-21T06:45:36.680Z,6.90
2023-01-21T06:48:05.020Z,7.07
2023-01-21T06:50:33.284Z,6.90
2023-01-21T06:53:01.359Z,6.53
2023-01-21T06:55:29.309Z,6.90
2023-01-21T06:57:57.725Z,6.90
2023-01-21T07:00:27.862Z,7.10
2023-01-21T07:02:57.942Z,6.23
2023-01-21T07:05:26.142Z,6.07
2023-01-21T07:07:55.945Z,5.57
2023-01-21T07:10:24.089Z,6.27
2023-01-21T07:12:52.554Z,7.13
2023-01-21T07:15:21.254Z,7.20
2023-01-21T07:17:50.832Z,7.63
2023-01-21T07:20:19.369Z,8.03
2023-01-21T07:22:47.428Z,16.23
2023-01-21T07:25:15.967Z,8.30
2023-01-21T07:27:44.055Z,8.00
2023-01-21T07:30:18.232Z,7.37
2023-01-21T07:32:46.368Z,6.90
2023-01-21T07:35:16.414Z,5.90
2023-01-21T07:37:44.665Z,5.40
2023-01-21T07:40:13.781Z,5.47
2023-01-21T07:42:41.700Z,4.67
2023-01-21T07:45:12.069Z,4.97
2023-01-21T07:47:40.395Z,3.90
2023-01-21T07:50:09.766Z,3.90
2023-01-21T07:52:40.058Z,3.53
2023-01-21T07:55:11.076Z,3.63
2023-01-21T07:57:40.879Z,3.53
2023-01-21T08:00:10.119Z,3.40
2023-01-21T08:02:38.234Z,3.60
2023-01-21T08:05:07.127Z,3.20
2023-01-21T08:07:35.277Z,4.07
2023-01-21T08:10:05.639Z,3.30
2023-01-21T08:12:33.623Z,2.97
2023-01-21T08:15:01.683Z,2.03
2023-01-21T08:17:29.735Z,2.80
2023-01-21T08:19:57.788Z,2.87
2023-01-21T08:22:26.293Z,2.17
2023-01-21T08:24:54.272Z,2.20
2023-01-21T08:27:23.835Z,2.20
2023-01-21T08:29:51.868Z,2.10
2023-01-21T08:32:20.200Z,1.87
2023-01-21T08:34:48.279Z,2.30
2023-01-21T08:37:16.401Z,2.47
2023-01-21T08:39:44.951Z,2.50
2023-01-21T08:42:13.023Z,2.10
2023-01-21T08:44:42.374Z,2.20
2023-01-21T08:47:10.408Z,2.50
2023-01-21T08:49:38.393Z,2.53
2023-01-21T08:52:06.630Z,2.87
2023-01-21T08:54:34.785Z,2.70
2023-01-21T08:57:02.784Z,2.40
2023-01-21T08:59:31.486Z,2.00
2023-01-21T09:02:01.009Z,2.10
2023-01-21T09:04:29.277Z,2.70
2023-01-21T09:06:57.612Z,1.77
2023-01-21T09:09:25.717Z,1.80
2023-01-21T09:11:53.669Z,1.87
2023-01-21T09:14:21.867Z,1.70
2023-01-21T09:16:50.637Z,1.70
2023-01-21T09:19:20.119Z,1.40
2023-01-21T09:21:48.368Z,1.40
2023-01-21T09:24:16.745Z,1.70
2023-01-21T09:26:45.147Z,1.50
2023-01-21T09:29:13.332Z,2.20
2023-01-21T09:31:41.513Z,1.70
2023-01-21T09:34:10.924Z,1.93
2023-01-21T09:36:40.892Z,1.50
2023-01-21T09:39:08.877Z,1.30
2023-01-21T09:41:39.023Z,1.20
2023-01-21T09:44:17.899Z,1.70
2023-01-21T09:46:50.658Z,1.63
2023-01-21T09:49:23.703Z,1.50
2023-01-21T09:51:58.674Z,1.40
2023-01-21T09:54:29.322Z,1.70
2023-01-21T09:57:20.996Z,1.83
2023-01-21T10:00:01.409Z,1.33
2023-01-21T10:02:38.998Z,1.63
2023-01-21T10:05:31.850Z,1.67
2023-01-21T10:08:09.601Z,1.58
2023-01-21T10:10:46.265Z,1.37
2023-01-21T10:13:36.490Z,1.30
2023-01-21T10:16:13.342Z,1.58
2023-01-21T10:18:45.436Z,1.60
2023-01-21T10:21:23.607Z,1.50
2023-01-21T10:23:57.522Z,1.38
2023-01-21T10:26:27.670Z,1.50
2023-01-21T10:28:56.835Z,1.55
2023-01-21T10:31:27.337Z,1.45
2023-01-21T10:33:55.909Z,1.50
2023-01-21T10:36:41.668Z,1.30
2023-01-21T10:39:20.318Z,4.50
2023-01-21T10:42:13.093Z,22.90
2023-01-21T10:44:50.734Z,5.10
2023-01-21T10:47:27.749Z,4.10
2023-01-21T10:50:04.243Z,4.72
2023-01-21T10:52:40.099Z,2.10
2023-01-21T10:55:26.165Z,3.30
2023-01-21T10:57:59.927Z,1.45
2023-01-21T11:00:33.288Z,1.42
2023-01-21T11:03:05.390Z,1.27
2023-01-21T11:05:34.060Z,1.48
2023-01-21T11:08:06.228Z,1.27
2023-01-21T11:10:35.712Z,1.40
2023-01-21T11:13:03.815Z,1.30
2023-01-21T11:15:37.005Z,1.30
2023-01-21T11:18:32.422Z,1.30
2023-01-21T11:21:01.895Z,1.48
2023-01-21T11:23:32.106Z,1.23
2023-01-21T11:26:09.411Z,0.98
2023-01-21T11:28:38.627Z,1.17
2023-01-21T11:31:12.333Z,1.40
2023-01-21T11:33:41.763Z,1.48
2023-01-21T11:36:17.951Z,1.88
2023-01-21T11:38:48.505Z,1.55
2023-01-21T11:41:21.895Z,1.85
2023-01-21T11:43:53.227Z,1.40
2023-01-21T11:46:32.539Z,1.30
2023-01-21T11:49:21.751Z,1.30
2023-01-21T11:51:50.204Z,1.40
2023-01-21T11:54:20.080Z,1.40
2023-01-21T11:56:58.244Z,1.52
2023-01-21T11:59:32.950Z,1.40
2023-01-21T12:02:09.260Z,1.42
2023-01-21T12:04:38.588Z,1.42
2023-01-21T12:07:08.302Z,1.50
2023-01-21T12:09:38.503Z,1.38
2023-01-21T12:12:28.052Z,1.40
2023-01-21T12:14:58.939Z,1.40
2023-01-21T12:17:46.578Z,1.60
2023-01-21T12:20:32.415Z,1.30
2023-01-21T12:23:20.276Z,1.50
2023-01-21T12:25:56.066Z,1.60
2023-01-21T12:28:40.117Z,1.30
2023-01-21T12:31:23.992Z,9.77
2023-01-21T12:33:59.998Z,1.75
2023-01-21T12:36:33.445Z,1.48
2023-01-21T12:39:25.285Z,1.58
2023-01-21T12:42:03.628Z,1.98
2023-01-21T12:44:38.997Z,1.65
2023-01-21T12:47:16.195Z,1.60
2023-01-21T12:50:04.814Z,1.83
2023-01-21T12:52:41.450Z,1.77
2023-01-21T12:55:20.273Z,1.50
2023-01-21T12:57:55.065Z,1.55
2023-01-21T13:00:27.644Z,2.10
2023-01-21T13:03:10.949Z,1.50
2023-01-21T13:05:48.819Z,1.50
2023-01-21T13:08:32.815Z,1.40
2023-01-21T13:11:07.308Z,1.60
2023-01-21T13:13:41.751Z,1.60
2023-01-21T13:16:12.570Z,1.60
2023-01-21T13:18:44.397Z,1.40
2023-01-21T13:21:21.354Z,1.67
2023-01-21T13:23:55.155Z,1.73
2023-01-21T13:26:30.175Z,1.57
2023-01-21T13:29:02.975Z,1.70
2023-01-21T13:31:42.549Z,1.73
2023-01-21T13:34:16.627Z,1.60
2023-01-21T13:36:56.114Z,1.90
2023-01-21T13:39:29.353Z,1.70
2023-01-21T13:42:16.715Z,1.60
2023-01-21T13:45:09.836Z,1.70
2023-01-21T13:47:55.687Z,1.70
2023-01-21T13:50:36.054Z,1.40
2023-01-21T13:53:42.220Z,1.73
2023-01-21T13:56:34.249Z,1.85
2023-01-21T13:59:08.814Z,1.83
2023-01-21T14:01:44.418Z,1.73
2023-01-21T14:04:18.193Z,1.92
2023-01-21T14:06:53.180Z,1.80
2023-01-21T14:09:26.877Z,2.10
2023-01-21T14:12:00.224Z,1.87
2023-01-21T14:15:03.928Z,2.13
2023-01-21T14:18:09.388Z,1.67
2023-01-21T14:20:58.439Z,1.77
2023-01-21T14:23:46.958Z,1.90
2023-01-21T14:26:27.271Z,2.17
2023-01-21T14:29:09.048Z,1.93
2023-01-21T14:31:41.556Z,2.00
2023-01-21T14:34:17.375Z,1.90
2023-01-21T14:36:55.359Z,2.10
2023-01-21T14:39:43.254Z,1.80
2023-01-21T14:42:12.811Z,2.20
2023-01-21T14:44:43.902Z,2.08
2023-01-21T14:47:16.485Z,2.07
2023-01-21T14:49:46.864Z,2.17
2023-01-21T14:52:18.633Z,2.07
2023-01-21T14:54:48.119Z,2.57
2023-01-21T14:57:35.645Z,3.83
2023-01-21T15:00:13.084Z,2.50
2023-01-21T15:02:44.672Z,2.10
2023-01-21T15:05:20.761Z,2.03
2023-01-21T15:07:59.475Z,2.37
2023-01-21T15:10:32.699Z,2.47
2023-01-21T15:13:04.702Z,2.30
2023-01-21T15:15:36.914Z,2.80
2023-01-21T15:18:25.129Z,2.47
2023-01-21T15:20:58.124Z,2.40
2023-01-21T15:23:40.044Z,2.47
2023-01-21T15:26:44.646Z,2.73
2023-01-21T15:29:34.856Z,3.17
2023-01-21T15:32:29.793Z,2.60
2023-01-21T15:35:02.034Z,2.77
2023-01-21T15:37:33.319Z,2.63
2023-01-21T15:40:14.095Z,2.60
2023-01-21T15:42:51.511Z,2.53
2023-01-21T15:45:34.147Z,3.60
2023-01-21T15:48:42.439Z,3.10
2023-01-21T15:51:21.656Z,3.27
2023-01-21T15:54:04.031Z,3.10
2023-01-21T15:57:05.961Z,2.97
2023-01-21T15:59:49.869Z,2.80
2023-01-21T16:02:23.020Z,2.83
2023-01-21T16:05:06.736Z,2.80
2023-01-21T16:07:45.509Z,2.53
2023-01-21T16:10:20.910Z,2.57
2023-01-21T16:13:06.375Z,2.57
2023-01-21T16:15:45.425Z,2.80
2023-01-21T16:18:24.132Z,2.80
2023-01-21T16:20:56.202Z,2.90
2023-01-21T16:23:27.558Z,2.70
2023-01-21T16:25:55.903Z,2.50
2023-01-21T16:28:25.681Z,2.60
2023-01-21T16:30:56.007Z,2.77
2023-01-21T16:33:24.988Z,2.67
2023-01-21T16:35:56.300Z,2.80
2023-01-21T16:38:26.647Z,2.60
2023-01-21T16:41:24.349Z,2.80
2023-01-21T16:43:56.640Z,2.73
2023-01-21T16:46:27.349Z,3.50
2023-01-21T16:48:59.486Z,2.80
2023-01-21T16:51:32.619Z,2.60
2023-01-21T16:54:27.231Z,2.80
2023-01-21T16:56:58.330Z,2.70
2023-01-21T16:59:30.009Z,2.83
2023-01-21T17:02:00.705Z,2.87
2023-01-21T17:04:30.946Z,3.00
2023-01-21T17:07:05.886Z,2.53
2023-01-21T17:09:36.365Z,2.80
2023-01-21T17:12:07.088Z,2.73
2023-01-21T17:14:37.918Z,2.50
2023-01-21T17:17:09.548Z,3.10
2023-01-21T17:19:40.093Z,3.03
2023-01-21T17:22:15.875Z,2.70
2023-01-21T17:24:56.769Z,3.30
2023-01-21T17:27:28.080Z,3.33
2023-01-21T17:30:19.426Z,2.93
2023-01-21T17:32:54.933Z,2.90
2023-01-21T17:35:24.834Z,2.93
2023-01-21T17:37:55.914Z,3.00
2023-01-21T17:40:29.406Z,3.30
2023-01-21T17:42:58.346Z,3.53
2023-01-21T17:45:32.247Z,3.40
2023-01-21T17:48:09.725Z,3.30
2023-01-21T17:50:46.162Z,2.80
2023-01-21T17:53:21.642Z,3.20
2023-01-21T17:55:59.235Z,3.93
2023-01-21T17:58:48.457Z,2.80
2023-01-21T18:01:19.540Z,2.80
2023-01-21T18:03:47.683Z,3.23
2023-01-21T18:06:20.243Z,3.23
2023-01-21T18:08:50.515Z,2.83
2023-01-21T18:11:19.457Z,3.00
2023-01-21T18:13:48.092Z,2.90
2023-01-21T18:16:17.777Z,3.17
2023-01-21T18:18:46.100Z,3.00
2023-01-21T18:21:21.797Z,3.47
2023-01-21T18:23:50.256Z,3.17
2023-01-21T18:26:26.573Z,4.30
2023-01-21T18:28:54.719Z,5.07
2023-01-21T18:31:24.419Z,5.20
2023-01-21T18:33:52.557Z,6.03
2023-01-21T18:36:20.638Z,6.90
2023-01-21T18:38:48.755Z,6.73
2023-01-21T18:41:16.816Z,15.60
2023-01-21T18:43:44.953Z,7.10
2023-01-21T18:46:14.204Z,6.60
2023-01-21T18:48:44.003Z,6.53
2023-01-21T18:51:14.190Z,7.70
2023-01-21T18:53:42.336Z,8.97
2023-01-21T18:56:14.526Z,9.40
2023-01-21T18:58:42.696Z,10.27
2023-01-21T19:01:22.002Z,11.00
2023-01-21T19:03:53.845Z,10.53
2023-01-21T19:06:24.446Z,11.10
2023-01-21T19:08:52.509Z,8.17
2023-01-21T19:11:20.672Z,8.40
2023-01-21T19:13:48.777Z,8.87
2023-01-21T19:16:19.107Z,7.50
2023-01-21T19:18:47.630Z,7.87
2023-01-21T19:21:17.104Z,7.70
2023-01-21T19:23:45.038Z,7.47
2023-01-21T19:26:15.370Z,7.07
2023-01-21T19:28:43.517Z,7.03
2023-01-21T19:31:11.638Z,7.83
2023-01-21T19:33:42.054Z,8.60
2023-01-21T19:36:16.028Z,7.60
2023-01-21T19:38:52.511Z,7.07
2023-01-21T19:41:20.512Z,7.37
2023-01-21T19:43:49.145Z,5.63
2023-01-21T19:46:17.186Z,5.83
2023-01-21T19:48:45.676Z,7.30
2023-01-21T19:51:14.263Z,6.30
2023-01-21T19:53:42.380Z,6.03
2023-01-21T19:56:17.489Z,5.93
2023-01-21T19:58:45.809Z,6.10
2023-01-21T20:01:13.857Z,6.47
2023-01-21T20:03:54.628Z,5.73
2023-01-21T20:06:28.263Z,6.03
2023-01-21T20:08:56.418Z,6.20
2023-01-21T20:11:25.947Z,6.37
2023-01-21T20:13:53.992Z,5.47
2023-01-21T20:16:23.813Z,6.07
2023-01-21T20:18:51.918Z,6.30
2023-01-21T20:21:20.079Z,16.47
2023-01-21T20:23:48.104Z,5.93
2023-01-21T20:26:20.967Z,6.30
2023-01-21T20:28:51.670Z,6.03
2023-01-21T20:31:20.012Z,5.33
2023-01-21T20:33:49.180Z,5.13
2023-01-21T20:36:21.823Z,5.27
2023-01-21T20:38:49.843Z,5.17
2023-01-21T20:41:18.058Z,4.20
2023-01-21T20:43:45.995Z,4.57
2023-01-21T20:46:18.685Z,4.83
2023-01-21T20:48:47.930Z,4.97
2023-01-21T20:51:15.940Z,5.17
2023-01-21T20:53:43.952Z,6.37
2023-01-21T20:56:20.802Z,6.87
2023-01-21T20:58:49.479Z,7.53
2023-01-21T21:01:20.997Z,7.17
2023-01-21T21:03:50.047Z,7.23
2023-01-21T21:06:20.076Z,7.30
2023-01-21T21:08:48.490Z,7.67
2023-01-21T21:11:18.037Z,7.63
2023-01-21T21:13:49.405Z,7.97
2023-01-21T21:16:22.350Z,7.17
2023-01-21T21:18:50.520Z,7.07
2023-01-21T21:21:21.692Z,7.63
2023-01-21T21:23:51.656Z,7.37
2023-01-21T21:26:23.092Z,7.07
2023-01-21T21:28:54.593Z,7.63
2023-01-21T21:31:25.148Z,7.13
2023-01-21T21:33:53.337Z,7.67
2023-01-21T21:36:23.213Z,7.17
2023-01-21T21:38:52.308Z,7.57
2023-01-21T21:41:39.349Z,12.83
2023-01-21T21:44:08.275Z,9.77
2023-01-21T21:46:54.485Z,7.90
2023-01-21T21:49:22.355Z,7.97
2023-01-21T21:51:50.355Z,8.20
2023-01-21T21:54:19.109Z,8.40
2023-01-21T21:56:47.933Z,8.37
2023-01-21T21:59:16.733Z,7.67
2023-01-21T22:01:46.163Z,8.43
2023-01-21T22:04:14.148Z,8.73
2023-01-21T22:06:42.144Z,9.43
2023-01-21T22:09:10.748Z,8.63
2023-01-21T22:11:38.902Z,9.37
2023-01-21T22:14:06.875Z,10.87
2023-01-21T22:16:35.200Z,10.13
2023-01-21T22:19:04.575Z,10.27
2023-01-21T22:21:34.685Z,9.67
2023-01-21T22:24:03.017Z,8.93
2023-01-21T22:26:32.390Z,10.27
2023-01-21T22:29:00.304Z,9.83
2023-01-21T22:31:30.399Z,10.37
2023-01-21T22:33:59.265Z,8.97
2023-01-21T22:36:31.244Z,9.93
2023-01-21T22:38:59.689Z,10.43
2023-01-21T22:41:28.061Z,9.70
2023-01-21T22:43:56.499Z,10.40
2023-01-21T22:46:25.534Z,10.13
2023-01-21T22:48:55.237Z,10.00
2023-01-21T22:51:24.093Z,9.30
2023-01-21T22:53:54.185Z,10.67
2023-01-21T22:56:39.900Z,10.13
2023-01-21T22:59:12.393Z,10.47
2023-01-21T23:01:40.644Z,9.57
2023-01-21T23:04:09.805Z,9.27
2023-01-21T23:06:38.079Z,8.47
2023-01-21T23:09:09.628Z,7.87
2023-01-21T23:11:41.585Z,8.57
2023-01-21T23:14:10.609Z,8.57
2023-01-21T23:16:38.661Z,8.30
2023-01-21T23:19:06.617Z,7.47
2023-01-21T23:21:35.943Z,8.53
2023-01-21T23:24:03.764Z,8.70
2023-01-21T23:26:33.210Z,9.73
2023-01-21T23:29:01.105Z,7.73
2023-01-21T23:31:29.110Z,7.63
2023-01-21T23:33:57.312Z,7.37
2023-01-21T23:36:25.207Z,7.50
2023-01-21T23:38:53.141Z,7.53
2023-01-21T23:41:21.243Z,7.43
2023-01-21T23:43:50.507Z,7.03
2023-01-21T23:46:19.794Z,7.20
2023-01-21T23:48:48.033Z,7.40
2023-01-21T23:51:18.350Z,6.67
2023-01-21T23:53:47.743Z,7.70
2023-01-21T23:56:17.284Z,6.70
2023-01-21T23:58:45.283Z,7.50
